Time;durP1;ratioP1;P1;durP2;ratioP2;P2;SDS_P1;SDS_P2;PMS_P1;PMS_P2;Temp;Humidity;BMP_temperature;BMP_pressure;BME280_temperature;BME280_humidity;BME280_pressure;Samples;Min_cycle;Max_cycle;Signal;HPM_P1;HPM_P2
2022/04/27 00:02:00;;;;;;;9.50;7.40;;;;;;;;;;5053399;28;20792;-70
2022/04/27 00:04:27;;;;;;;10.17;7.33;;;;;;;;;;5053461;28;20410;-71
2022/04/27 00:06:53;;;;;;;9.47;6.93;;;;;;;;;;5053224;28;20507;-74
2022/04/27 00:09:19;;;;;;;9.23;7.00;;;;;;;;;;5053614;28;20421;-77
2022/04/27 00:11:45;;;;;;;8.80;7.13;;;;;;;;;;5053380;28;20917;-76
2022/04/27 00:14:11;;;;;;;10.03;7.20;;;;;;;;;;5053286;28;20409;-76
2022/04/27 00:16:37;;;;;;;11.20;8.17;;;;;;;;;;5053470;28;20393;-77
2022/04/27 00:19:03;;;;;;;11.00;7.80;;;;;;;;;;5053322;28;20599;-78
2022/04/27 00:21:29;;;;;;;11.47;7.90;;;;;;;;;;5053285;28;20436;-77
2022/04/27 00:23:55;;;;;;;11.60;8.13;;;;;;;;;;5053265;28;20493;-76
2022/04/27 00:26:21;;;;;;;11.57;8.47;;;;;;;;;;5051815;28;20493;-76
2022/04/27 00:28:47;;;;;;;10.90;7.90;;;;;;;;;;5053060;28;20512;-76
2022/04/27 00:31:13;;;;;;;10.10;7.43;;;;;;;;;;5053031;28;20943;-75
2022/04/27 00:33:39;;;;;;;11.30;8.27;;;;;;;;;;5053098;28;20432;-65
2022/04/27 00:36:05;;;;;;;11.60;7.97;;;;;;;;;;5053050;28;20412;-65
2022/04/27 00:38:31;;;;;;;17.40;9.57;;;;;;;;;;5053121;28;20398;-76
2022/04/27 00:40:57;;;;;;;10.50;8.43;;;;;;;;;;5052859;28;20434;-64
2022/04/27 00:43:40;;;;;;;11.50;8.83;;;;;;;;;;5051653;28;20417;-65
2022/04/27 00:46:06;;;;;;;13.00;9.60;;;;;;;;;;5051671;28;20421;-77
2022/04/27 00:48:32;;;;;;;14.43;9.63;;;;;;;;;;5052841;28;20945;-74
2022/04/27 00:51:00;;;;;;;12.47;8.90;;;;;;;;;;5052929;28;20501;-77
2022/04/27 00:53:26;;;;;;;14.90;9.93;;;;;;;;;;5056814;28;20503;-76
2022/04/27 00:55:52;;;;;;;14.13;9.40;;;;;;;;;;5057004;28;20758;-77
2022/04/27 00:58:19;;;;;;;13.40;9.10;;;;;;;;;;5057038;28;20401;-76
2022/04/27 01:00:45;;;;;;;12.27;9.27;;;;;;;;;;5056753;28;20953;-77
2022/04/27 01:03:11;;;;;;;11.97;8.73;;;;;;;;;;5056855;28;20412;-72
2022/04/27 01:05:37;;;;;;;13.83;9.83;;;;;;;;;;5056816;28;20397;-68
2022/04/27 01:08:03;;;;;;;13.73;9.40;;;;;;;;;;5056529;28;20481;-75
2022/04/27 01:10:30;;;;;;;14.30;9.33;;;;;;;;;;5056672;28;20426;-75
2022/04/27 01:12:58;;;;;;;12.83;9.40;;;;;;;;;;5056662;28;20491;-65
2022/04/27 01:15:33;;;;;;;12.90;8.73;;;;;;;;;;5056606;28;20409;-76
2022/04/27 01:18:00;;;;;;;12.83;9.73;;;;;;;;;;5055402;28;20772;-77
2022/04/27 01:20:33;;;;;;;13.47;10.07;;;;;;;;;;5056642;28;20409;-76
2022/04/27 01:23:00;;;;;;;15.83;11.07;;;;;;;;;;5056506;28;20427;-77
2022/04/27 01:25:26;;;;;;;15.67;11.00;;;;;;;;;;5056444;28;20409;-77
2022/04/27 01:27:51;;;;;;;14.20;9.83;;;;;;;;;;5056525;28;20523;-77
2022/04/27 01:30:17;;;;;;;15.13;10.10;;;;;;;;;;5056367;28;20504;-79
2022/04/27 01:32:43;;;;;;;13.50;9.83;;;;;;;;;;5056420;28;20417;-76
2022/04/27 01:35:09;;;;;;;15.93;9.33;;;;;;;;;;5056310;28;20466;-76
2022/04/27 01:40:20;;;;;;;14.30;9.90;;;;;;;;;;5056151;28;20479;-77
2022/04/27 01:42:48;;;;;;;18.50;11.37;;;;;;;;;;5056116;28;20414;-77
2022/04/27 01:45:14;;;;;;;18.50;11.43;;;;;;;;;;5054819;28;20942;-77
2022/04/27 01:47:40;;;;;;;19.97;12.20;;;;;;;;;;5056030;28;20548;-78
2022/04/27 01:50:06;;;;;;;18.63;12.17;;;;;;;;;;5056038;28;20888;-77
2022/04/27 01:55:19;;;;;;;20.70;13.30;;;;;;;;;;5056189;28;20512;-77
2022/04/27 01:57:45;;;;;;;20.53;13.17;;;;;;;;;;5055878;28;20413;-78
2022/04/27 02:00:11;;;;;;;23.70;14.27;;;;;;;;;;5055961;28;20448;-77
2022/04/27 02:02:38;;;;;;;24.00;14.03;;;;;;;;;;5055621;28;20410;-77
2022/04/27 02:05:04;;;;;;;25.27;15.67;;;;;;;;;;5055777;28;20500;-78
2022/04/27 02:07:30;;;;;;;26.83;15.20;;;;;;;;;;5055414;28;20956;-75
2022/04/27 02:09:56;;;;;;;27.80;16.30;;;;;;;;;;5055588;28;20406;-77
2022/04/27 02:12:22;;;;;;;26.50;15.83;;;;;;;;;;5055648;28;20410;-77
2022/04/27 02:14:48;;;;;;;25.57;15.73;;;;;;;;;;5055494;28;20406;-78
2022/04/27 02:17:14;;;;;;;30.60;16.90;;;;;;;;;;5055569;28;20805;-78
2022/04/27 02:19:41;;;;;;;30.17;17.17;;;;;;;;;;5055601;28;20405;-77
2022/04/27 02:22:07;;;;;;;28.60;16.30;;;;;;;;;;5055269;28;20445;-78
2022/04/27 02:24:33;;;;;;;29.33;17.27;;;;;;;;;;5054060;28;20994;-78
2022/04/27 02:26:59;;;;;;;27.90;16.43;;;;;;;;;;5055323;28;20457;-78
2022/04/27 02:29:25;;;;;;;27.07;16.13;;;;;;;;;;5055389;28;20401;-76
2022/04/27 02:31:51;;;;;;;29.07;16.07;;;;;;;;;;5055237;28;20903;-77
2022/04/27 02:34:17;;;;;;;28.20;16.10;;;;;;;;;;5053900;28;20417;-76
2022/04/27 02:36:43;;;;;;;29.07;16.10;;;;;;;;;;5055294;28;20907;-75
2022/04/27 02:39:10;;;;;;;25.77;15.00;;;;;;;;;;5054742;28;20441;-77
2022/04/27 02:41:36;;;;;;;24.73;15.17;;;;;;;;;;5054950;28;20850;-77
2022/04/27 02:44:02;;;;;;;26.43;15.40;;;;;;;;;;5054986;28;20413;-77
2022/04/27 02:46:28;;;;;;;24.43;15.20;;;;;;;;;;5054897;28;20413;-77
2022/04/27 02:51:53;;;;;;;28.07;15.97;;;;;;;;;;5055015;28;20497;-77
2022/04/27 02:54:20;;;;;;;23.03;14.53;;;;;;;;;;5054895;28;20414;-76
2022/04/27 02:56:47;;;;;;;25.00;15.57;;;;;;;;;;5054771;28;20397;-77
2022/04/27 02:59:13;;;;;;;24.97;14.70;;;;;;;;;;5054645;28;20428;-76
2022/04/27 03:01:39;;;;;;;24.23;14.90;;;;;;;;;;5054703;28;20409;-77
2022/04/27 03:04:05;;;;;;;22.10;14.20;;;;;;;;;;5054597;28;20771;-77
2022/04/27 03:06:31;;;;;;;25.10;15.17;;;;;;;;;;5054314;28;20487;-77
2022/04/27 03:08:57;;;;;;;23.90;13.87;;;;;;;;;;5054571;28;20446;-78
2022/04/27 03:11:23;;;;;;;20.37;13.20;;;;;;;;;;5054431;28;20485;-77
2022/04/27 03:13:50;;;;;;;22.30;12.33;;;;;;;;;;5054145;28;20414;-77
2022/04/27 03:16:16;;;;;;;21.03;12.50;;;;;;;;;;5052679;28;20418;-77
2022/04/27 03:18:42;;;;;;;21.60;13.20;;;;;;;;;;5054411;28;20493;-77
2022/04/27 03:21:09;;;;;;;22.23;13.00;;;;;;;;;;5054253;28;20414;-77
2022/04/27 03:23:35;;;;;;;22.70;13.47;;;;;;;;;;5054341;28;20455;-78
2022/04/27 03:26:02;;;;;;;21.53;13.80;;;;;;;;;;5054256;28;20471;-77
2022/04/27 03:28:28;;;;;;;23.93;13.67;;;;;;;;;;5052871;28;20480;-78
2022/04/27 03:30:54;;;;;;;21.93;13.83;;;;;;;;;;5054185;28;20818;-78
2022/04/27 03:33:20;;;;;;;23.80;15.00;;;;;;;;;;5054062;28;20523;-78
2022/04/27 03:35:47;;;;;;;21.20;13.20;;;;;;;;;;5054069;28;20410;-78
2022/04/27 03:38:14;;;;;;;23.60;12.93;;;;;;;;;;5052671;28;20453;-78
2022/04/27 03:40:41;;;;;;;24.43;13.67;;;;;;;;;;5052683;28;20443;-78
2022/04/27 03:43:08;;;;;;;22.13;13.70;;;;;;;;;;5053950;28;20892;-78
2022/04/27 03:45:35;;;;;;;21.67;13.03;;;;;;;;;;5053864;28;20409;-78
2022/04/27 03:48:01;;;;;;;25.30;14.53;;;;;;;;;;5053787;28;20554;-78
2022/04/27 03:50:27;;;;;;;24.70;15.17;;;;;;;;;;5052662;28;20421;-78
2022/04/27 03:52:53;;;;;;;22.73;14.33;;;;;;;;;;5053848;28;20428;-78
2022/04/27 03:55:19;;;;;;;21.63;13.77;;;;;;;;;;5053716;28;20424;-78
2022/04/27 03:57:45;;;;;;;22.43;13.87;;;;;;;;;;5052467;28;20524;-78
2022/04/27 04:00:11;;;;;;;20.93;13.50;;;;;;;;;;5053604;28;20418;-78
2022/04/27 04:02:38;;;;;;;21.43;13.40;;;;;;;;;;5053504;28;20406;-79
2022/04/27 04:05:07;;;;;;;23.33;14.20;;;;;;;;;;5053436;28;20517;-77
2022/04/27 04:07:33;;;;;;;23.80;13.50;;;;;;;;;;5053261;28;20491;-78
2022/04/27 04:09:59;;;;;;;20.47;13.37;;;;;;;;;;5053375;28;20413;-78
2022/04/27 04:12:25;;;;;;;22.10;12.70;;;;;;;;;;5052283;28;20425;-80
2022/04/27 04:14:51;;;;;;;19.70;13.47;;;;;;;;;;5053372;28;20413;-74
2022/04/27 04:17:18;;;;;;;20.83;13.60;;;;;;;;;;5053403;28;20428;-78
2022/04/27 04:19:44;;;;;;;19.63;12.70;;;;;;;;;;5053267;28;20489;-78
2022/04/27 04:22:10;;;;;;;20.33;13.13;;;;;;;;;;5051854;28;20866;-77
2022/04/27 04:24:37;;;;;;;20.40;12.40;;;;;;;;;;5053230;28;20435;-79
2022/04/27 04:29:48;;;;;;;19.27;13.00;;;;;;;;;;5053367;28;20408;-79
2022/04/27 04:32:16;;;;;;;18.43;12.30;;;;;;;;;;5053234;28;20393;-79
2022/04/27 04:34:42;;;;;;;16.93;11.67;;;;;;;;;;5052976;28;20409;-76
2022/04/27 04:37:08;;;;;;;20.10;12.30;;;;;;;;;;5053103;28;20488;-79
2022/04/27 04:39:34;;;;;;;17.43;11.87;;;;;;;;;;5052933;28;20799;-73
2022/04/27 04:42:00;;;;;;;19.07;12.40;;;;;;;;;;5051770;28;20434;-76
2022/04/27 04:44:26;;;;;;;19.37;12.93;;;;;;;;;;5053453;28;20400;-74
2022/04/27 04:46:52;;;;;;;21.43;13.40;;;;;;;;;;5051764;28;20893;-76
2022/04/27 04:49:18;;;;;;;23.50;13.80;;;;;;;;;;5051844;28;20418;-75
2022/04/27 04:51:45;;;;;;;18.53;11.73;;;;;;;;;;5053287;28;20514;-75
2022/04/27 04:54:11;;;;;;;21.80;12.77;;;;;;;;;;5052912;28;20574;-72
2022/04/27 04:56:37;;;;;;;20.13;13.27;;;;;;;;;;5051965;28;20499;-76
2022/04/27 04:59:03;;;;;;;18.30;12.27;;;;;;;;;;5053087;28;20436;-73
2022/04/27 05:01:29;;;;;;;18.97;12.93;;;;;;;;;;5053029;28;20401;-84
2022/04/27 05:03:55;;;;;;;21.93;13.00;;;;;;;;;;5052737;28;20414;-76
2022/04/27 05:06:21;;;;;;;19.10;12.20;;;;;;;;;;5052587;28;20412;-71
2022/04/27 05:08:47;;;;;;;20.50;12.50;;;;;;;;;;5052795;28;20461;-75
2022/04/27 05:11:13;;;;;;;24.00;15.20;;;;;;;;;;5052746;28;20943;-77
2022/04/27 05:13:39;;;;;;;19.80;12.63;;;;;;;;;;5051615;28;20414;-73
2022/04/27 05:16:05;;;;;;;20.10;12.60;;;;;;;;;;5052720;28;20424;-76
2022/04/27 05:18:31;;;;;;;22.50;13.73;;;;;;;;;;5052697;28;20877;-74
2022/04/27 05:20:57;;;;;;;22.80;12.63;;;;;;;;;;5052546;28;20417;-75
2022/04/27 05:23:23;;;;;;;27.60;13.50;;;;;;;;;;5052530;28;20418;-79
2022/04/27 05:25:49;;;;;;;19.70;11.90;;;;;;;;;;5052715;28;20410;-79
2022/04/27 05:28:15;;;;;;;22.60;13.40;;;;;;;;;;5052536;28;20471;-77
2022/04/27 05:33:26;;;;;;;25.73;13.90;;;;;;;;;;5052503;28;20450;-81
2022/04/27 05:35:52;;;;;;;23.37;14.60;;;;;;;;;;5051242;28;20410;-78
2022/04/27 05:38:18;;;;;;;22.33;13.57;;;;;;;;;;5054116;28;20885;-79
2022/04/27 05:40:44;;;;;;;22.07;14.53;;;;;;;;;;5056029;28;20516;-82
2022/04/27 05:43:10;;;;;;;23.23;13.43;;;;;;;;;;5056164;28;20517;-82
2022/04/27 05:45:37;;;;;;;25.00;14.03;;;;;;;;;;5055873;28;20492;-74
2022/04/27 05:48:03;;;;;;;24.97;14.17;;;;;;;;;;5055967;28;20615;-80
2022/04/27 05:50:29;;;;;;;21.60;14.20;;;;;;;;;;5055917;28;20405;-81
2022/04/27 05:52:58;;;;;;;24.70;14.10;;;;;;;;;;5054562;28;20424;-81
2022/04/27 05:55:24;;;;;;;23.43;14.80;;;;;;;;;;5055872;28;20429;-79
2022/04/27 05:57:50;;;;;;;20.43;12.00;;;;;;;;;;5054588;28;20913;-81
2022/04/27 06:00:16;;;;;;;23.90;14.07;;;;;;;;;;5057724;28;20496;-77
2022/04/27 06:02:43;;;;;;;21.73;13.43;;;;;;;;;;5055649;28;20393;-79
2022/04/27 06:05:09;;;;;;;20.50;12.90;;;;;;;;;;5055595;28;20464;-81
2022/04/27 06:07:36;;;;;;;22.73;13.50;;;;;;;;;;5055375;28;20495;-81
2022/04/27 06:10:06;;;;;;;20.57;12.43;;;;;;;;;;5054090;28;20493;-81
2022/04/27 06:12:36;;;;;;;19.23;12.57;;;;;;;;;;5055531;28;20433;-81
2022/04/27 06:15:05;;;;;;;19.60;11.90;;;;;;;;;;5054153;28;20398;-82
2022/04/27 06:17:32;;;;;;;21.60;13.63;;;;;;;;;;5055461;28;20953;-78
2022/04/27 06:19:58;;;;;;;22.67;13.73;;;;;;;;;;5055272;28;20409;-80
2022/04/27 06:22:25;;;;;;;21.37;14.03;;;;;;;;;;5055430;28;20463;-77
2022/04/27 06:24:51;;;;;;;22.87;14.50;;;;;;;;;;5055444;28;20402;-77
2022/04/27 06:27:17;;;;;;;21.83;12.83;;;;;;;;;;5055051;28;20470;-80
2022/04/27 06:29:42;;;;;;;21.73;13.33;;;;;;;;;;5055160;28;20409;-81
2022/04/27 06:32:08;;;;;;;20.27;12.37;;;;;;;;;;5055231;28;20405;-78
2022/04/27 06:34:35;;;;;;;21.10;13.60;;;;;;;;;;5055100;28;20519;-77
2022/04/27 06:37:00;;;;;;;22.87;13.27;;;;;;;;;;5055033;28;20402;-78
2022/04/27 06:39:26;;;;;;;20.37;13.17;;;;;;;;;;5054781;28;20440;-82
2022/04/27 06:41:52;;;;;;;21.90;12.63;;;;;;;;;;5055027;28;20426;-79
2022/04/27 06:44:18;;;;;;;21.33;13.40;;;;;;;;;;5054871;28;20862;-81
2022/04/27 06:46:44;;;;;;;20.93;12.73;;;;;;;;;;5054854;28;20424;-81
2022/04/27 06:49:10;;;;;;;18.97;12.43;;;;;;;;;;5053909;28;20971;-81
2022/04/27 06:51:36;;;;;;;21.73;11.90;;;;;;;;;;5054677;28;20509;-81
2022/04/27 06:54:06;;;;;;;18.57;12.77;;;;;;;;;;5054728;28;20441;-81
2022/04/27 06:56:32;;;;;;;19.40;12.43;;;;;;;;;;5053550;28;20417;-82
2022/04/27 06:58:58;;;;;;;23.40;13.23;;;;;;;;;;5054486;28;20524;-81
2022/04/27 07:01:24;;;;;;;20.00;13.10;;;;;;;;;;5053561;28;20418;-80
2022/04/27 07:03:55;;;;;;;20.03;13.27;;;;;;;;;;5054511;28;20491;-80
2022/04/27 07:06:21;;;;;;;19.67;13.07;;;;;;;;;;5054560;28;20397;-79
2022/04/27 07:08:48;;;;;;;21.00;12.87;;;;;;;;;;5054489;28;20832;-73
2022/04/27 07:11:14;;;;;;;21.00;13.10;;;;;;;;;;5054368;28;20425;-81
2022/04/27 07:13:40;;;;;;;19.00;12.87;;;;;;;;;;5054420;28;20401;-81
2022/04/27 07:16:06;;;;;;;20.90;12.50;;;;;;;;;;5054322;28;20398;-80
2022/04/27 07:18:32;;;;;;;18.80;12.47;;;;;;;;;;5054175;28;20455;-81
2022/04/27 07:21:00;;;;;;;17.33;11.20;;;;;;;;;;5054223;28;20433;-77
2022/04/27 07:23:26;;;;;;;16.07;10.70;;;;;;;;;;5053245;28;20788;-81
2022/04/27 07:25:52;;;;;;;18.67;12.07;;;;;;;;;;5054307;28;20430;-82
2022/04/27 07:28:18;;;;;;;16.67;11.33;;;;;;;;;;5053897;28;20491;-82
2022/04/27 07:30:44;;;;;;;15.37;10.77;;;;;;;;;;5054135;28;20402;-81
2022/04/27 07:33:11;;;;;;;14.77;10.90;;;;;;;;;;5054051;28;20501;-74
2022/04/27 07:35:37;;;;;;;18.70;11.33;;;;;;;;;;5054103;28;20409;-82
2022/04/27 07:38:03;;;;;;;18.53;10.90;;;;;;;;;;5053975;28;20884;-82
2022/04/27 07:40:29;;;;;;;15.93;10.87;;;;;;;;;;5053764;28;20432;-82
2022/04/27 07:42:55;;;;;;;15.37;10.90;;;;;;;;;;5052770;28;20418;-81
2022/04/27 07:45:21;;;;;;;16.83;10.50;;;;;;;;;;5052717;28;20755;-82
2022/04/27 07:47:48;;;;;;;15.30;10.17;;;;;;;;;;5053799;28;20473;-76
2022/04/27 07:50:15;;;;;;;16.47;11.57;;;;;;;;;;5053730;28;20907;-82
2022/04/27 07:52:41;;;;;;;12.63;9.20;;;;;;;;;;5053838;28;20428;-83
2022/04/27 07:55:08;;;;;;;14.90;10.10;;;;;;;;;;5052411;28;20780;-81
2022/04/27 07:57:35;;;;;;;15.83;9.63;;;;;;;;;;5053466;28;20477;-71
2022/04/27 08:00:03;;;;;;;12.93;8.80;;;;;;;;;;5053358;28;20413;-81
2022/04/27 08:02:29;;;;;;;13.80;8.77;;;;;;;;;;5053431;28;20508;-72
2022/04/27 08:04:55;;;;;;;13.30;9.80;;;;;;;;;;5057925;28;20425;-82
2022/04/27 08:07:21;;;;;;;15.43;10.07;;;;;;;;;;5053160;28;20504;-77
2022/04/27 08:09:47;;;;;;;12.17;9.70;;;;;;;;;;5053225;28;21114;-71
2022/04/27 08:12:13;;;;;;;12.60;9.10;;;;;;;;;;5053475;28;20554;-80
2022/04/27 08:14:39;;;;;;;11.10;8.07;;;;;;;;;;5053493;28;20416;-81
2022/04/27 08:17:06;;;;;;;12.83;9.20;;;;;;;;;;5052039;28;20409;-81
2022/04/27 08:19:32;;;;;;;16.00;8.60;;;;;;;;;;5051830;28;20424;-81
2022/04/27 08:21:59;;;;;;;13.27;9.60;;;;;;;;;;5053268;28;20437;-82
2022/04/27 08:24:25;;;;;;;14.83;9.47;;;;;;;;;;5053172;28;20475;-78
2022/04/27 08:26:51;;;;;;;13.50;9.20;;;;;;;;;;5053105;28;20471;-82
2022/04/27 08:29:18;;;;;;;14.73;9.20;;;;;;;;;;5051769;28;20422;-81
2022/04/27 08:31:44;;;;;;;12.63;8.33;;;;;;;;;;5051842;28;20412;-80
2022/04/27 08:34:10;;;;;;;13.27;9.13;;;;;;;;;;5053017;28;20874;-79
2022/04/27 08:36:36;;;;;;;16.80;10.23;;;;;;;;;;5052991;28;20442;-80
2022/04/27 08:39:04;;;;;;;13.37;8.93;;;;;;;;;;5052884;28;20418;-81
2022/04/27 08:41:30;;;;;;;9.90;7.50;;;;;;;;;;5053168;28;20829;-79
2022/04/27 08:43:56;;;;;;;10.90;7.60;;;;;;;;;;5052959;28;20463;-81
2022/04/27 08:46:24;;;;;;;10.17;7.70;;;;;;;;;;5052959;28;20889;-81
2022/04/27 08:48:51;;;;;;;11.43;7.43;;;;;;;;;;5051643;28;20480;-82
2022/04/27 08:51:17;;;;;;;12.70;8.57;;;;;;;;;;5052860;28;20460;-81
2022/04/27 08:53:44;;;;;;;12.33;9.23;;;;;;;;;;5052863;28;20401;-80
2022/04/27 08:56:10;;;;;;;14.17;8.60;;;;;;;;;;5052998;28;20437;-80
2022/04/27 08:58:36;;;;;;;11.07;8.47;;;;;;;;;;5052693;28;20409;-82
2022/04/27 09:01:02;;;;;;;12.77;8.93;;;;;;;;;;5052820;28;20409;-81
2022/04/27 09:03:33;;;;;;;13.43;9.27;;;;;;;;;;5052805;28;20421;-75
2022/04/27 09:06:03;;;;;;;11.90;8.83;;;;;;;;;;5052757;28;20410;-80
2022/04/27 09:08:45;;;;;;;12.77;9.17;;;;;;;;;;5052631;28;20640;-82
2022/04/27 09:11:15;;;;;;;12.97;9.80;;;;;;;;;;5052528;28;20430;-75
2022/04/27 09:13:41;;;;;;;14.00;9.20;;;;;;;;;;5055050;28;20393;-81
2022/04/27 09:16:08;;;;;;;12.80;8.90;;;;;;;;;;5056620;28;20516;-82
2022/04/27 09:21:54;;;;;;;13.30;9.07;;;;;;;;;;5056835;28;20423;-81
2022/04/27 09:24:20;;;;;;;13.00;8.57;;;;;;;;;;5056484;28;20401;-80
2022/04/27 09:26:46;;;;;;;12.63;8.30;;;;;;;;;;5056420;28;20406;-77
2022/04/27 09:29:25;;;;;;;12.60;8.80;;;;;;;;;;5056362;28;20444;-80
2022/04/27 09:31:57;;;;;;;12.17;7.80;;;;;;;;;;5056459;28;20512;-82
2022/04/27 09:34:29;;;;;;;13.13;8.27;;;;;;;;;;5056218;28;20420;-81
2022/04/27 09:37:14;;;;;;;10.30;7.27;;;;;;;;;;5056317;28;20416;-81
2022/04/27 09:39:41;;;;;;;11.80;8.40;;;;;;;;;;5056044;28;20417;-81
2022/04/27 09:42:12;;;;;;;11.73;7.40;;;;;;;;;;5056163;28;20500;-81
2022/04/27 09:44:39;;;;;;;11.83;6.67;;;;;;;;;;5056147;28;20452;-81
2022/04/27 09:47:06;;;;;;;12.97;6.23;;;;;;;;;;5056060;28;20931;-81
2022/04/27 09:49:34;;;;;;;9.23;5.93;;;;;;;;;;5054717;28;20461;-76
2022/04/27 09:52:01;;;;;;;8.00;5.63;;;;;;;;;;5056018;28;20417;-76
2022/04/27 09:54:28;;;;;;;10.43;6.10;;;;;;;;;;5055897;28;20417;-79
2022/04/27 09:56:58;;;;;;;7.47;5.03;;;;;;;;;;5055926;28;20398;-81
2022/04/27 09:59:30;;;;;;;6.77;5.53;;;;;;;;;;5055851;28;20762;-80
2022/04/27 10:01:57;;;;;;;5.73;3.90;;;;;;;;;;5056021;28;20452;-82
2022/04/27 10:04:25;;;;;;;5.23;4.40;;;;;;;;;;5055900;28;20726;-78
2022/04/27 10:06:52;;;;;;;4.63;3.83;;;;;;;;;;5055325;28;20460;-81
2022/04/27 10:09:18;;;;;;;6.60;4.83;;;;;;;;;;5054575;28;20464;-81
2022/04/27 10:11:44;;;;;;;7.20;5.60;;;;;;;;;;5054479;28;20461;-81
2022/04/27 10:14:11;;;;;;;6.57;4.20;;;;;;;;;;5054323;28;20418;-82
2022/04/27 10:16:38;;;;;;;5.80;4.43;;;;;;;;;;5055724;28;20437;-82
2022/04/27 10:19:08;;;;;;;5.93;4.33;;;;;;;;;;5055365;28;20433;-75
2022/04/27 10:22:15;;;;;;;5.40;4.00;;;;;;;;;;5060810;28;20422;-68
2022/04/27 10:24:34;;;;;;;6.73;5.00;;;;;;;;;;5056198;28;20414;-79
2022/04/27 10:27:19;;;;;;;5.50;4.27;;;;;;;;;;5055228;28;20421;-82
2022/04/27 10:29:52;;;;;;;5.43;4.03;;;;;;;;;;5055369;28;20902;-81
2022/04/27 10:32:34;;;;;;;6.17;4.20;;;;;;;;;;5058775;28;20413;-81
2022/04/27 10:35:12;;;;;;;5.17;4.67;;;;;;;;;;5055235;28;20417;-81
2022/04/27 10:37:48;;;;;;;5.13;3.87;;;;;;;;;;5053963;28;20420;-82
2022/04/27 10:40:33;;;;;;;5.47;4.00;;;;;;;;;;5055067;28;20421;-83
2022/04/27 10:43:05;;;;;;;5.57;4.10;;;;;;;;;;5055111;28;20405;-80
2022/04/27 10:45:32;;;;;;;5.37;4.20;;;;;;;;;;5053686;28;20493;-82
2022/04/27 10:47:58;;;;;;;5.53;4.27;;;;;;;;;;5054872;28;20471;-81
2022/04/27 10:50:26;;;;;;;4.13;3.73;;;;;;;;;;5054701;28;20398;-74
2022/04/27 10:52:55;;;;;;;6.70;4.33;;;;;;;;;;5053553;28;20513;-82
2022/04/27 10:55:40;;;;;;;6.07;4.80;;;;;;;;;;5054807;28;20417;-77
2022/04/27 10:58:12;;;;;;;5.37;4.33;;;;;;;;;;5054805;28;20413;-81
2022/04/27 11:00:57;;;;;;;5.20;4.60;;;;;;;;;;5053094;28;20781;-78
2022/04/27 11:03:23;;;;;;;5.43;4.60;;;;;;;;;;5054491;28;20452;-82
2022/04/27 11:05:50;;;;;;;5.30;4.70;;;;;;;;;;5054528;28;20479;-75
2022/04/27 11:08:40;;;;;;;5.33;4.43;;;;;;;;;;5054333;28;20477;-82
2022/04/27 11:11:07;;;;;;;6.40;4.20;;;;;;;;;;5054658;28;20436;-80
2022/04/27 11:13:35;;;;;;;4.83;4.33;;;;;;;;;;5053175;28;20496;-75
2022/04/27 11:16:10;;;;;;;7.33;4.70;;;;;;;;;;5054360;28;20402;-76
2022/04/27 11:18:55;;;;;;;6.10;4.90;;;;;;;;;;5054107;28;20510;-75
2022/04/27 11:21:22;;;;;;;6.17;4.83;;;;;;;;;;5053125;28;20445;-81
2022/04/27 11:23:48;;;;;;;6.07;4.40;;;;;;;;;;5054667;28;20402;-83
2022/04/27 11:26:14;;;;;;;6.77;4.93;;;;;;;;;;5054240;28;20770;-82
2022/04/27 11:28:44;;;;;;;5.67;4.50;;;;;;;;;;5054254;28;20542;-81
2022/04/27 11:31:10;;;;;;;5.90;4.90;;;;;;;;;;5054206;28;20539;-79
2022/04/27 11:33:40;;;;;;;5.90;4.90;;;;;;;;;;5054080;28;20463;-77
2022/04/27 11:36:23;;;;;;;6.47;5.23;;;;;;;;;;5053442;28;20412;-75
2022/04/27 11:38:49;;;;;;;5.27;4.50;;;;;;;;;;5053939;28;20401;-80
2022/04/27 11:41:16;;;;;;;5.10;4.57;;;;;;;;;;5053859;28;20516;-72
2022/04/27 11:43:42;;;;;;;5.57;4.50;;;;;;;;;;5053853;28;20410;-80
2022/04/27 11:46:09;;;;;;;5.17;4.63;;;;;;;;;;5054016;28;20480;-81
2022/04/27 11:48:35;;;;;;;5.27;4.73;;;;;;;;;;5053766;28;20491;-81
2022/04/27 11:51:02;;;;;;;5.10;4.33;;;;;;;;;;5053835;28;20402;-81
2022/04/27 11:53:28;;;;;;;6.13;5.17;;;;;;;;;;5053818;28;20425;-81
2022/04/27 11:55:54;;;;;;;5.50;4.80;;;;;;;;;;5053634;28;20398;-82
2022/04/27 11:58:22;;;;;;;5.77;5.17;;;;;;;;;;5053743;28;20404;-80
2022/04/27 12:00:49;;;;;;;6.17;4.80;;;;;;;;;;5053320;28;20900;-81
2022/04/27 12:03:15;;;;;;;7.37;4.53;;;;;;;;;;5053589;28;20413;-80
2022/04/27 12:05:41;;;;;;;4.77;4.33;;;;;;;;;;5053591;28;20405;-81
2022/04/27 12:08:11;;;;;;;5.77;4.23;;;;;;;;;;5053291;28;20473;-80
2022/04/27 12:10:39;;;;;;;4.80;4.30;;;;;;;;;;5053723;28;20789;-81
2022/04/27 12:13:05;;;;;;;5.13;4.47;;;;;;;;;;5052288;28;20870;-80
2022/04/27 12:15:31;;;;;;;4.60;4.20;;;;;;;;;;5053742;28;20425;-82
2022/04/27 12:17:57;;;;;;;6.57;5.40;;;;;;;;;;5053529;28;20517;-82
2022/04/27 12:20:30;;;;;;;4.50;4.10;;;;;;;;;;5053695;28;20406;-79
2022/04/27 12:22:58;;;;;;;6.00;4.70;;;;;;;;;;5053346;28;20418;-81
2022/04/27 12:25:37;;;;;;;5.27;4.37;;;;;;;;;;5053680;28;20412;-81
2022/04/27 12:28:03;;;;;;;5.50;5.00;;;;;;;;;;5053483;28;21026;-81
2022/04/27 12:30:30;;;;;;;8.20;6.27;;;;;;;;;;5053606;28;20398;-78
2022/04/27 12:32:57;;;;;;;5.60;5.10;;;;;;;;;;5053457;28;20416;-83
2022/04/27 12:38:17;;;;;;;5.07;4.63;;;;;;;;;;5053301;28;20430;-83
2022/04/27 12:40:43;;;;;;;4.97;4.50;;;;;;;;;;5053188;28;20414;-82
2022/04/27 12:43:11;;;;;;;4.80;4.30;;;;;;;;;;5052989;28;20437;-81
2022/04/27 12:45:37;;;;;;;7.53;4.30;;;;;;;;;;5053079;28;20888;-78
2022/04/27 12:48:07;;;;;;;5.10;4.70;;;;;;;;;;5050803;28;20465;-81
2022/04/27 12:50:34;;;;;;;5.13;4.63;;;;;;;;;;5051585;28;20436;-81
2022/04/27 12:53:10;;;;;;;4.60;4.20;;;;;;;;;;5052810;28;20920;-80
2022/04/27 12:55:36;;;;;;;4.97;4.47;;;;;;;;;;5052921;28;20413;-79
2022/04/27 12:58:03;;;;;;;5.00;4.60;;;;;;;;;;5052742;28;20410;-81
2022/04/27 13:00:42;;;;;;;5.13;4.37;;;;;;;;;;5052706;28;20406;-82
2022/04/27 13:03:08;;;;;;;4.40;4.00;;;;;;;;;;5052678;28;20962;-82
2022/04/27 13:05:36;;;;;;;4.87;4.40;;;;;;;;;;5052756;28;20414;-81
2022/04/27 13:08:02;;;;;;;5.17;4.70;;;;;;;;;;5052764;28;20484;-79
2022/04/27 13:13:15;;;;;;;6.03;4.90;;;;;;;;;;5052706;28;20919;-78
2022/04/27 13:15:41;;;;;;;6.30;4.90;;;;;;;;;;5051376;28;20456;-80
2022/04/27 13:18:07;;;;;;;5.23;4.47;;;;;;;;;;5052803;28;20409;-81
2022/04/27 13:20:33;;;;;;;7.60;5.30;;;;;;;;;;5052720;28;20425;-81
2022/04/27 13:22:59;;;;;;;6.20;5.10;;;;;;;;;;5052459;28;20803;-81
2022/04/27 13:25:25;;;;;;;6.83;5.50;;;;;;;;;;5052750;28;20945;-82
2022/04/27 13:27:51;;;;;;;6.83;5.90;;;;;;;;;;5052828;28;20556;-83
2022/04/27 13:30:17;;;;;;;6.97;5.90;;;;;;;;;;5051509;28;20471;-78
2022/04/27 13:32:44;;;;;;;5.83;4.80;;;;;;;;;;5052628;28;20421;-82
2022/04/27 13:35:10;;;;;;;8.23;5.13;;;;;;;;;;5052636;28;20398;-82
2022/04/27 13:37:36;;;;;;;6.43;5.33;;;;;;;;;;5052573;28;20402;-81
2022/04/27 13:40:02;;;;;;;7.10;5.63;;;;;;;;;;5052451;28;20436;-81
2022/04/27 13:42:28;;;;;;;6.37;5.60;;;;;;;;;;5051242;28;20478;-82
2022/04/27 13:44:54;;;;;;;6.47;4.87;;;;;;;;;;5052491;28;20904;-76
2022/04/27 13:47:22;;;;;;;6.23;5.63;;;;;;;;;;5052157;28;20548;-81
2022/04/27 13:49:48;;;;;;;6.90;5.30;;;;;;;;;;5052458;28;20413;-81
2022/04/27 13:52:14;;;;;;;6.60;5.90;;;;;;;;;;5051002;28;20445;-83
2022/04/27 13:54:40;;;;;;;5.77;5.17;;;;;;;;;;5052216;28;20402;-84
2022/04/27 13:57:06;;;;;;;5.20;4.70;;;;;;;;;;5052416;28;20406;-81
2022/04/27 13:59:32;;;;;;;7.07;6.00;;;;;;;;;;5054078;28;20493;-83
2022/04/27 14:02:01;;;;;;;8.03;5.30;;;;;;;;;;5056011;28;20509;-83
2022/04/27 14:04:27;;;;;;;6.37;5.70;;;;;;;;;;5055791;28;20931;-78
2022/04/27 14:06:53;;;;;;;8.50;6.30;;;;;;;;;;5055607;28;20532;-82
2022/04/27 14:09:19;;;;;;;7.13;5.60;;;;;;;;;;5055692;28;20513;-82
2022/04/27 14:14:30;;;;;;;7.33;6.03;;;;;;;;;;5055572;28;20459;-80
2022/04/27 14:19:40;;;;;;;6.70;6.00;;;;;;;;;;5055534;28;20471;-81
2022/04/27 14:22:07;;;;;;;7.80;6.07;;;;;;;;;;5055431;28;20409;-81
2022/04/27 14:24:33;;;;;;;8.50;6.40;;;;;;;;;;5055496;28;20413;-77
2022/04/27 14:26:59;;;;;;;7.57;6.33;;;;;;;;;;5055276;28;20409;-81
2022/04/27 14:29:25;;;;;;;8.03;5.60;;;;;;;;;;5055332;28;20964;-81
2022/04/27 14:31:51;;;;;;;6.53;5.83;;;;;;;;;;5055318;28;20459;-81
2022/04/27 14:34:17;;;;;;;9.97;7.50;;;;;;;;;;5055123;28;20471;-80
2022/04/27 14:36:43;;;;;;;7.10;5.80;;;;;;;;;;5055373;28;20410;-80
2022/04/27 14:39:09;;;;;;;6.40;5.70;;;;;;;;;;5055170;28;20405;-83
2022/04/27 14:41:35;;;;;;;7.00;5.00;;;;;;;;;;5055135;28;20436;-82
2022/04/27 14:44:01;;;;;;;6.43;5.83;;;;;;;;;;5053755;28;20503;-77
2022/04/27 14:46:27;;;;;;;6.13;5.50;;;;;;;;;;5055076;28;20888;-77
2022/04/27 14:48:53;;;;;;;6.73;6.00;;;;;;;;;;5054953;28;20465;-82
2022/04/27 14:51:19;;;;;;;6.60;5.70;;;;;;;;;;5054863;28;20489;-82
2022/04/27 14:53:45;;;;;;;6.43;5.80;;;;;;;;;;5053649;28;20449;-76
2022/04/27 14:56:12;;;;;;;7.30;6.23;;;;;;;;;;5053718;28;20497;-78
2022/04/27 14:58:38;;;;;;;9.53;6.80;;;;;;;;;;5054727;28;20421;-82